Time;durP1;ratioP1;P1;durP2;ratioP2;P2;SDS_P1;SDS_P2;PMS_P1;PMS_P2;Temp;Humidity;BMP_temperature;BMP_pressure;BME280_temperature;BME280_humidity;BME280_pressure;Samples;Min_cycle;Max_cycle;Signal;HPM_P1;HPM_P2
2023/09/24 00:02:11;;;;;;;2.03;0.70;;;14.50;67.00;;;;;;2623043;52;21427;-70
2023/09/24 00:04:37;;;;;;;1.58;0.60;;;14.50;67.10;;;;;;2350663;53;20985;-72
2023/09/24 00:07:05;;;;;;;1.60;0.60;;;14.50;67.20;;;;;;2370260;53;20895;-72
2023/09/24 00:09:32;;;;;;;2.25;0.60;;;14.50;67.30;;;;;;2370957;53;20922;-73
2023/09/24 00:11:58;;;;;;;2.00;0.70;;;14.50;67.40;;;;;;2370607;53;20937;-71
2023/09/24 00:14:33;;;;;;;1.65;0.62;;;14.50;67.40;;;;;;2623124;52;21332;-70
2023/09/24 00:17:00;;;;;;;1.25;0.60;;;14.50;67.50;;;;;;2369765;53;21395;-71
2023/09/24 00:19:26;;;;;;;1.55;0.47;;;14.50;67.60;;;;;;2361387;53;21086;-72
2023/09/24 00:21:52;;;;;;;0.90;0.50;;;14.50;67.70;;;;;;2362205;53;20950;-71
2023/09/24 00:24:23;;;;;;;2.30;0.40;;;14.50;67.50;;;;;;2623194;52;20975;-71
2023/09/24 00:26:49;;;;;;;2.42;0.43;;;14.50;67.50;;;;;;2354079;53;20994;-71
2023/09/24 00:29:18;;;;;;;1.10;0.43;;;14.50;67.30;;;;;;2618195;52;20937;-72
2023/09/24 00:31:45;;;;;;;1.08;0.50;;;14.50;67.30;;;;;;2599217;52;20998;-73
2023/09/24 00:34:11;;;;;;;0.98;0.35;;;14.50;67.30;;;;;;2366246;53;20986;-71
2023/09/24 00:36:38;;;;;;;1.10;0.45;;;14.60;67.40;;;;;;2370448;53;21053;-72
2023/09/24 00:39:04;;;;;;;1.95;0.50;;;14.50;67.30;;;;;;2623380;52;20915;-69
2023/09/24 00:41:31;;;;;;;3.00;0.52;;;14.50;67.30;;;;;;2619002;52;20922;-70
2023/09/24 00:43:57;;;;;;;0.82;0.35;;;14.40;67.30;;;;;;2621846;52;20993;-73
2023/09/24 00:46:24;;;;;;;1.23;0.40;;;14.40;67.20;;;;;;2369537;53;20954;-70
2023/09/24 00:48:50;;;;;;;1.30;0.50;;;14.50;67.30;;;;;;2622137;52;20996;-73
2023/09/24 00:51:19;;;;;;;2.30;0.45;;;14.40;67.20;;;;;;2607216;52;20999;-72
2023/09/24 00:53:46;;;;;;;0.98;0.40;;;14.40;67.20;;;;;;2611526;52;21923;-71
2023/09/24 00:56:13;;;;;;;0.68;0.35;;;14.30;67.00;;;;;;2622252;52;20938;-71
2023/09/24 00:58:41;;;;;;;1.37;0.50;;;14.30;67.10;;;;;;2615319;52;21022;-71
2023/09/24 01:01:09;;;;;;;1.25;0.40;;;14.30;67.10;;;;;;2353269;53;20990;-69
2023/09/24 01:03:39;;;;;;;1.50;0.40;;;14.30;67.10;;;;;;2622950;52;21466;-73
2023/09/24 01:06:06;;;;;;;0.75;0.30;;;14.30;67.10;;;;;;2589243;52;20933;-73
2023/09/24 01:08:33;;;;;;;2.45;0.50;;;14.30;67.10;;;;;;2342649;53;21017;-72
2023/09/24 01:11:05;;;;;;;1.65;0.50;;;14.20;67.00;;;;;;2588904;52;20983;-74
2023/09/24 01:13:43;;;;;;;1.52;0.40;;;14.20;66.90;;;;;;2342578;53;20920;-71
2023/09/24 01:16:09;;;;;;;0.55;0.25;;;14.20;66.90;;;;;;2340855;53;21021;-70
2023/09/24 01:18:36;;;;;;;1.95;0.40;;;14.10;66.80;;;;;;2613310;52;21771;-71
2023/09/24 01:21:05;;;;;;;0.98;0.50;;;14.10;66.80;;;;;;2601603;52;20994;-71
2023/09/24 01:23:35;;;;;;;1.02;0.40;;;14.10;66.80;;;;;;2594321;52;21756;-72
2023/09/24 01:26:02;;;;;;;1.48;0.50;;;14.10;66.60;;;;;;2588466;52;21008;-73
2023/09/24 01:28:28;;;;;;;0.75;0.37;;;14.00;66.70;;;;;;2359568;53;21675;-74
2023/09/24 01:30:54;;;;;;;0.80;0.40;;;14.00;66.80;;;;;;2586899;52;20948;-73
2023/09/24 01:33:21;;;;;;;3.62;0.60;;;14.00;66.80;;;;;;2342173;53;20941;-70
2023/09/24 01:35:49;;;;;;;1.15;0.47;;;13.90;66.70;;;;;;2361391;53;20982;-73
2023/09/24 01:38:17;;;;;;;0.73;0.32;;;13.90;66.60;;;;;;2589117;52;20925;-73
2023/09/24 01:40:43;;;;;;;0.90;0.40;;;13.90;66.60;;;;;;2356648;53;21351;-72
2023/09/24 01:43:14;;;;;;;0.68;0.37;;;13.80;66.60;;;;;;2593302;52;20964;-72
2023/09/24 01:45:40;;;;;;;0.77;0.37;;;13.80;66.80;;;;;;2589029;52;21808;-73
2023/09/24 01:48:07;;;;;;;1.23;0.40;;;13.80;66.80;;;;;;2342649;53;20951;-68
2023/09/24 01:50:35;;;;;;;2.33;0.50;;;13.70;66.60;;;;;;2342894;53;20919;-71
2023/09/24 01:53:02;;;;;;;1.87;0.50;;;13.70;66.50;;;;;;2589049;52;20966;-72
2023/09/24 01:55:28;;;;;;;2.05;0.50;;;13.70;66.50;;;;;;2589180;52;20982;-70
2023/09/24 01:57:55;;;;;;;1.85;0.40;;;13.60;66.30;;;;;;2589688;52;21002;-71
2023/09/24 02:00:22;;;;;;;1.00;0.40;;;13.60;66.40;;;;;;2589183;52;21790;-73
2023/09/24 02:02:59;;;;;;;0.28;0.25;;;13.50;66.50;;;;;;2589494;52;20954;-71
2023/09/24 02:05:32;;;;;;;1.30;0.40;;;13.50;66.60;;;;;;2341936;54;21036;-71
2023/09/24 02:08:09;;;;;;;1.37;0.50;;;13.50;66.60;;;;;;2588043;52;20937;-71
2023/09/24 02:10:39;;;;;;;1.52;0.60;;;13.50;66.80;;;;;;2600976;52;20906;-71
2023/09/24 02:13:06;;;;;;;0.98;0.40;;;13.40;66.90;;;;;;2621932;52;21967;-72
2023/09/24 02:15:33;;;;;;;0.98;0.40;;;13.40;67.10;;;;;;2369824;53;21009;-72
2023/09/24 02:18:00;;;;;;;1.35;0.50;;;13.40;67.30;;;;;;2623040;52;20898;-70
2023/09/24 02:20:32;;;;;;;1.87;0.60;;;13.40;67.30;;;;;;2622468;52;21005;-71
2023/09/24 02:22:59;;;;;;;1.02;0.47;;;13.40;67.30;;;;;;2622588;52;21003;-73
2023/09/24 02:25:29;;;;;;;1.60;0.50;;;13.40;67.30;;;;;;2622651;52;20990;-71
2023/09/24 02:27:57;;;;;;;1.60;0.60;;;13.40;67.40;;;;;;2623230;52;21010;-72
2023/09/24 02:30:28;;;;;;;1.40;0.60;;;13.40;67.40;;;;;;2370596;53;20998;-73
2023/09/24 02:32:57;;;;;;;1.90;0.40;;;13.40;67.40;;;;;;2623156;52;20938;-72
2023/09/24 02:35:24;;;;;;;1.37;0.50;;;13.30;67.40;;;;;;2622953;52;20921;-70
2023/09/24 02:37:53;;;;;;;1.95;0.40;;;13.40;67.50;;;;;;2623196;52;20959;-75
2023/09/24 02:40:23;;;;;;;2.62;0.55;;;13.30;67.40;;;;;;2622676;52;20987;-73
2023/09/24 02:42:52;;;;;;;3.00;0.43;;;13.30;67.40;;;;;;2617425;52;21054;-72
2023/09/24 02:45:22;;;;;;;1.62;0.55;;;13.30;67.50;;;;;;2349547;53;20958;-73
2023/09/24 02:47:51;;;;;;;1.75;0.50;;;13.30;67.40;;;;;;2622809;52;20945;-71
2023/09/24 02:50:28;;;;;;;1.85;0.65;;;13.30;67.50;;;;;;2369900;53;21025;-73
2023/09/24 02:53:02;;;;;;;1.02;0.50;;;13.30;67.50;;;;;;2369644;53;20982;-72
2023/09/24 02:55:29;;;;;;;2.15;0.43;;;13.30;67.30;;;;;;2622569;52;20994;-71
2023/09/24 02:57:56;;;;;;;1.23;0.40;;;13.30;67.40;;;;;;2622294;52;21008;-70
2023/09/24 03:00:36;;;;;;;1.15;0.40;;;13.30;67.40;;;;;;2623047;52;20931;-69
2023/09/24 03:03:04;;;;;;;1.50;0.60;;;13.30;67.30;;;;;;2370496;53;21806;-70
2023/09/24 03:05:31;;;;;;;1.20;0.40;;;13.30;67.30;;;;;;2370638;53;20953;-71
2023/09/24 03:08:02;;;;;;;1.37;0.52;;;13.30;67.30;;;;;;2369862;53;20917;-70
2023/09/24 03:10:33;;;;;;;1.05;0.40;;;13.20;67.20;;;;;;2370437;53;21021;-71
2023/09/24 03:13:00;;;;;;;1.27;0.50;;;13.20;67.10;;;;;;2371381;53;20998;-72
2023/09/24 03:15:26;;;;;;;1.67;0.60;;;13.20;67.20;;;;;;2623044;52;20950;-68
2023/09/24 03:17:53;;;;;;;1.98;0.60;;;13.20;67.20;;;;;;2623572;52;21088;-72
2023/09/24 03:20:23;;;;;;;3.70;0.57;;;13.20;67.30;;;;;;2621210;52;20935;-70
2023/09/24 03:22:54;;;;;;;1.10;0.50;;;13.10;67.00;;;;;;2369927;53;21056;-72
2023/09/24 03:25:21;;;;;;;1.92;0.50;;;13.10;67.00;;;;;;2623143;52;20951;-71
2023/09/24 03:27:48;;;;;;;1.23;0.50;;;13.10;67.00;;;;;;2623180;52;21001;-69
2023/09/24 03:30:17;;;;;;;5.20;0.70;;;13.10;67.90;;;;;;2370545;53;21919;-70
2023/09/24 03:32:44;;;;;;;0.70;0.40;;;13.10;67.30;;;;;;2622993;52;21089;-72
2023/09/24 03:35:13;;;;;;;1.10;0.50;;;13.00;67.20;;;;;;2370319;53;21033;-71
2023/09/24 03:37:43;;;;;;;4.10;0.40;;;13.00;67.20;;;;;;2622466;52;20959;-71
2023/09/24 03:40:13;;;;;;;1.23;0.40;;;13.00;67.20;;;;;;2369384;53;20902;-71
2023/09/24 03:42:40;;;;;;;0.73;0.37;;;13.00;67.20;;;;;;2618346;52;20984;-72
2023/09/24 03:45:17;;;;;;;2.00;0.60;;;13.00;67.20;;;;;;2350111;53;20974;-70
2023/09/24 03:47:43;;;;;;;1.02;0.40;;;13.00;67.20;;;;;;2370737;53;21001;-70
2023/09/24 03:50:13;;;;;;;1.00;0.40;;;13.00;67.20;;;;;;2370838;53;20906;-72
2023/09/24 03:52:49;;;;;;;1.33;0.50;;;12.90;67.10;;;;;;2623086;52;20938;-72
2023/09/24 03:55:16;;;;;;;1.12;0.40;;;12.90;66.80;;;;;;2370688;53;21058;-70
2023/09/24 03:57:42;;;;;;;1.83;0.50;;;12.90;67.00;;;;;;2622934;52;21030;-74
2023/09/24 04:00:11;;;;;;;2.08;0.70;;;12.90;66.90;;;;;;2595080;52;20950;-71
2023/09/24 04:02:39;;;;;;;4.75;0.47;;;12.80;66.80;;;;;;2622569;52;20926;-70
2023/09/24 04:05:17;;;;;;;0.80;0.40;;;12.80;66.90;;;;;;2622027;52;21388;-73
2023/09/24 04:07:44;;;;;;;1.37;0.50;;;12.80;66.90;;;;;;2622472;52;20902;-71
2023/09/24 04:10:14;;;;;;;1.35;0.50;;;12.70;66.80;;;;;;2359010;53;21612;-70
2023/09/24 04:12:46;;;;;;;2.83;0.50;;;12.70;66.90;;;;;;2363022;53;21002;-71
2023/09/24 04:15:14;;;;;;;1.15;0.47;;;12.70;66.90;;;;;;2370748;53;20915;-71
2023/09/24 04:17:41;;;;;;;1.37;0.57;;;12.70;67.00;;;;;;2370057;53;20937;-69
2023/09/24 04:20:08;;;;;;;6.25;0.65;;;12.70;67.00;;;;;;2622543;52;21190;-73
2023/09/24 04:22:34;;;;;;;1.37;0.52;;;12.70;67.10;;;;;;2370333;53;21502;-71
2023/09/24 04:25:04;;;;;;;1.00;0.47;;;12.60;67.00;;;;;;2622625;52;20961;-72
2023/09/24 04:27:31;;;;;;;1.48;0.40;;;12.60;66.90;;;;;;2623467;52;20969;-69
2023/09/24 04:29:58;;;;;;;1.48;0.55;;;12.60;67.00;;;;;;2369912;53;21731;-70
2023/09/24 04:32:24;;;;;;;1.25;0.50;;;12.60;67.00;;;;;;2622842;52;20957;-73
2023/09/24 04:34:50;;;;;;;0.95;0.40;;;12.60;67.00;;;;;;2623582;52;20895;-69
2023/09/24 04:37:17;;;;;;;1.42;0.52;;;12.60;67.00;;;;;;2623046;52;20927;-71
2023/09/24 04:39:45;;;;;;;2.37;0.52;;;12.50;67.00;;;;;;2622988;52;20910;-70
2023/09/24 04:42:11;;;;;;;2.70;0.70;;;12.50;67.00;;;;;;2622513;52;20945;-73
2023/09/24 04:44:42;;;;;;;1.58;0.65;;;12.50;67.00;;;;;;2370761;53;20914;-70
2023/09/24 04:47:08;;;;;;;1.20;0.50;;;12.50;67.00;;;;;;2353939;53;20926;-72
2023/09/24 04:49:35;;;;;;;1.42;0.57;;;12.40;67.00;;;;;;2368003;53;21021;-73
2023/09/24 04:52:01;;;;;;;1.25;0.60;;;12.40;66.90;;;;;;2370298;53;21284;-73
2023/09/24 04:54:28;;;;;;;1.73;0.80;;;12.40;66.90;;;;;;2622310;52;20946;-74
2023/09/24 04:56:54;;;;;;;2.95;0.62;;;12.40;66.90;;;;;;2370391;53;20974;-72
2023/09/24 04:59:22;;;;;;;1.77;0.55;;;12.30;66.90;;;;;;2623163;52;20943;-71
2023/09/24 05:01:50;;;;;;;3.40;0.77;;;12.40;67.10;;;;;;2622934;52;20911;-73
2023/09/24 05:04:19;;;;;;;3.42;0.70;;;12.30;67.00;;;;;;2622920;52;20963;-71
2023/09/24 05:06:45;;;;;;;1.55;0.57;;;12.30;67.00;;;;;;2623216;52;20998;-72
2023/09/24 05:09:11;;;;;;;1.87;0.70;;;12.30;67.00;;;;;;2371325;53;20930;-73
2023/09/24 05:11:38;;;;;;;1.35;0.57;;;12.30;67.00;;;;;;2622896;52;21062;-73
2023/09/24 05:14:04;;;;;;;1.25;0.47;;;12.20;67.00;;;;;;2622991;52;21218;-69
2023/09/24 05:16:30;;;;;;;1.40;0.62;;;12.30;67.00;;;;;;2623328;52;20890;-71
2023/09/24 05:19:02;;;;;;;2.50;0.65;;;12.20;67.00;;;;;;2367649;53;20958;-73
2023/09/24 05:21:28;;;;;;;2.20;0.80;;;12.10;66.90;;;;;;2355019;53;21927;-71
2023/09/24 05:23:55;;;;;;;1.23;0.50;;;12.20;67.00;;;;;;2370866;53;20922;-69
2023/09/24 05:26:22;;;;;;;1.17;0.50;;;12.20;67.00;;;;;;2370212;53;21005;-70
2023/09/24 05:28:48;;;;;;;1.52;0.68;;;12.20;66.90;;;;;;2623583;52;20930;-72
2023/09/24 05:31:16;;;;;;;2.15;0.73;;;12.20;66.90;;;;;;2370729;53;20926;-69
2023/09/24 05:33:44;;;;;;;2.05;0.62;;;12.10;66.80;;;;;;2622718;52;21073;-72
2023/09/24 05:36:11;;;;;;;1.87;0.60;;;12.10;67.10;;;;;;2370733;53;21027;-70
2023/09/24 05:38:37;;;;;;;1.85;0.75;;;12.20;67.50;;;;;;2623450;52;20926;-74
2023/09/24 05:41:05;;;;;;;1.52;0.60;;;12.10;67.30;;;;;;2594016;52;20930;-73
2023/09/24 05:43:31;;;;;;;1.80;0.62;;;12.10;67.30;;;;;;2370805;53;20985;-70
2023/09/24 05:46:00;;;;;;;1.75;0.60;;;12.10;68.10;;;;;;2622448;52;21732;-68
2023/09/24 05:48:29;;;;;;;3.90;0.82;;;12.10;67.40;;;;;;2622913;52;21455;-70
2023/09/24 05:50:55;;;;;;;1.58;0.70;;;12.10;67.40;;;;;;2623575;52;20985;-72
2023/09/24 05:53:22;;;;;;;2.17;0.57;;;12.00;67.20;;;;;;2623201;52;20966;-71
2023/09/24 05:55:52;;;;;;;0.95;0.40;;;12.10;67.30;;;;;;2371167;53;21621;-74
2023/09/24 05:58:20;;;;;;;1.60;0.70;;;12.10;67.30;;;;;;2371223;53;20986;-69
2023/09/24 06:00:47;;;;;;;2.78;0.90;;;12.00;67.20;;;;;;2623030;52;21010;-75
2023/09/24 06:03:14;;;;;;;2.12;0.70;;;12.00;67.30;;;;;;2622867;52;21818;-70
2023/09/24 06:05:40;;;;;;;2.05;0.70;;;12.00;67.30;;;;;;2369651;53;21044;-71
2023/09/24 06:08:07;;;;;;;1.27;0.60;;;12.00;67.40;;;;;;2370746;53;20947;-73
2023/09/24 06:10:35;;;;;;;1.27;0.50;;;12.10;67.60;;;;;;2622519;52;20993;-70
2023/09/24 06:13:02;;;;;;;1.58;0.70;;;12.00;67.60;;;;;;2369864;53;21042;-70
2023/09/24 06:15:29;;;;;;;3.87;0.90;;;12.00;67.60;;;;;;2623052;52;21012;-71
2023/09/24 06:17:55;;;;;;;2.17;0.68;;;12.00;67.60;;;;;;2357555;53;22013;-71
2023/09/24 06:20:23;;;;;;;1.50;0.60;;;12.00;67.70;;;;;;2364739;53;21031;-71
2023/09/24 06:22:53;;;;;;;4.68;2.30;;;12.10;67.80;;;;;;2617579;52;21096;-70
2023/09/24 06:25:20;;;;;;;4.30;1.80;;;12.10;67.90;;;;;;2599525;52;21876;-71
2023/09/24 06:27:49;;;;;;;4.70;2.37;;;12.10;68.00;;;;;;2622483;52;20938;-69
2023/09/24 06:30:16;;;;;;;6.68;3.45;;;12.10;68.00;;;;;;2605237;52;21006;-72
2023/09/24 06:32:47;;;;;;;8.02;4.93;;;12.10;68.10;;;;;;2362579;53;20929;-72
2023/09/24 06:35:14;;;;;;;5.53;3.10;;;12.10;68.10;;;;;;2612529;52;21520;-71
2023/09/24 06:37:40;;;;;;;4.55;2.10;;;12.10;68.20;;;;;;2345306;53;21222;-72
2023/09/24 06:40:09;;;;;;;3.10;1.70;;;12.10;68.20;;;;;;2360526;53;20923;-72
2023/09/24 06:42:37;;;;;;;2.45;1.30;;;12.20;68.40;;;;;;2370331;53;20986;-73
2023/09/24 06:45:08;;;;;;;2.95;1.30;;;12.20;68.50;;;;;;2622738;52;20926;-70
2023/09/24 06:47:35;;;;;;;2.45;1.25;;;12.20;68.60;;;;;;2622855;52;20943;-70
2023/09/24 06:50:02;;;;;;;2.65;1.20;;;12.30;68.70;;;;;;2623291;52;21309;-73
2023/09/24 06:52:32;;;;;;;2.78;1.10;;;12.30;68.90;;;;;;2622743;52;20977;-71
2023/09/24 06:55:01;;;;;;;2.60;1.20;;;12.30;69.00;;;;;;2622703;52;20942;-73
2023/09/24 06:57:27;;;;;;;2.67;1.10;;;12.40;69.20;;;;;;2370434;53;21627;-70
2023/09/24 06:59:54;;;;;;;2.65;1.02;;;12.50;69.40;;;;;;2623684;52;20986;-70
2023/09/24 07:02:20;;;;;;;1.87;0.82;;;12.50;69.40;;;;;;2623421;52;20971;-73
2023/09/24 07:04:48;;;;;;;4.28;0.90;;;12.50;69.60;;;;;;2371176;53;21018;-73
2023/09/24 07:07:15;;;;;;;2.35;1.00;;;12.60;69.80;;;;;;2623182;52;20938;-71
2023/09/24 07:09:41;;;;;;;2.10;0.80;;;12.60;70.00;;;;;;2623531;52;21483;-71
2023/09/24 07:12:08;;;;;;;2.45;1.00;;;12.70;70.20;;;;;;2370649;53;20926;-72
2023/09/24 07:14:37;;;;;;;2.20;0.90;;;12.60;70.20;;;;;;2622616;52;20914;-70
2023/09/24 07:17:03;;;;;;;2.12;0.90;;;12.80;70.50;;;;;;2370737;53;20922;-72
2023/09/24 07:19:31;;;;;;;2.85;0.90;;;12.90;70.70;;;;;;2361737;53;21522;-72
2023/09/24 07:21:58;;;;;;;1.87;0.73;;;13.00;70.90;;;;;;2609442;52;20969;-72
2023/09/24 07:24:26;;;;;;;4.35;1.25;;;13.10;71.00;;;;;;2622812;52;21037;-73
2023/09/24 07:26:52;;;;;;;2.55;1.00;;;13.10;71.00;;;;;;2370846;53;20962;-73
2023/09/24 07:29:19;;;;;;;2.28;1.00;;;13.20;71.20;;;;;;2610702;52;21038;-72
2023/09/24 07:31:45;;;;;;;2.70;1.10;;;13.30;71.30;;;;;;2605745;52;20943;-72
2023/09/24 07:34:12;;;;;;;3.20;0.95;;;13.40;71.50;;;;;;2622263;52;20974;-71
2023/09/24 07:36:38;;;;;;;3.58;1.27;;;13.50;71.70;;;;;;2613622;52;21028;-70
2023/09/24 07:39:11;;;;;;;2.17;0.90;;;13.60;71.70;;;;;;2356161;53;21883;-72
2023/09/24 07:41:37;;;;;;;2.00;0.80;;;13.70;71.70;;;;;;2622459;52;20934;-72
2023/09/24 07:44:04;;;;;;;1.62;0.68;;;13.80;71.80;;;;;;2371189;53;21388;-72
2023/09/24 07:46:34;;;;;;;1.60;0.70;;;13.80;71.70;;;;;;2614518;52;20986;-71
2023/09/24 07:49:07;;;;;;;2.22;0.77;;;13.90;71.80;;;;;;2602171;52;21703;-71
2023/09/24 07:51:33;;;;;;;1.85;0.68;;;14.00;71.90;;;;;;2621127;52;20957;-72
2023/09/24 07:54:00;;;;;;;1.92;0.75;;;14.10;72.70;;;;;;2622821;52;20978;-72
2023/09/24 07:56:26;;;;;;;2.15;0.65;;;14.20;72.00;;;;;;2602309;52;20986;-72
2023/09/24 07:58:52;;;;;;;2.08;0.82;;;14.30;72.10;;;;;;2362173;53;21396;-72
2023/09/24 08:01:21;;;;;;;3.33;0.73;;;14.40;72.20;;;;;;2622446;52;20993;-73
2023/09/24 08:03:47;;;;;;;2.55;0.90;;;14.50;72.20;;;;;;2611651;52;20967;-72
2023/09/24 08:06:14;;;;;;;1.80;0.75;;;14.50;72.20;;;;;;2590921;52;20992;-72
2023/09/24 08:08:40;;;;;;;2.50;0.95;;;14.60;72.30;;;;;;2621289;52;21463;-71
2023/09/24 08:11:16;;;;;;;2.50;0.85;;;14.70;72.30;;;;;;2622315;52;21816;-71
2023/09/24 08:13:44;;;;;;;2.53;0.82;;;14.80;72.40;;;;;;2370581;53;21010;-69
2023/09/24 08:16:13;;;;;;;1.95;0.90;;;14.90;72.40;;;;;;2623233;52;20993;-72
2023/09/24 08:18:41;;;;;;;2.12;0.90;;;15.10;72.60;;;;;;2622711;52;20954;-69
2023/09/24 08:21:11;;;;;;;2.70;0.93;;;15.10;72.60;;;;;;2370537;53;20922;-70
2023/09/24 08:23:38;;;;;;;3.95;1.48;;;15.20;72.70;;;;;;2622620;52;20926;-70
2023/09/24 08:26:04;;;;;;;2.65;1.02;;;15.30;72.90;;;;;;2623158;52;20982;-69
2023/09/24 08:28:30;;;;;;;2.22;1.30;;;15.40;73.10;;;;;;2623003;52;21411;-70
2023/09/24 08:30:57;;;;;;;2.42;1.10;;;15.50;73.10;;;;;;2623216;52;21867;-72
2023/09/24 08:33:24;;;;;;;4.62;1.67;;;15.60;73.00;;;;;;2622998;52;21786;-71
2023/09/24 08:35:50;;;;;;;3.80;1.20;;;15.70;73.10;;;;;;2370797;53;20958;-71
2023/09/24 08:38:18;;;;;;;3.30;1.25;;;15.70;73.00;;;;;;2623560;52;21006;-72
2023/09/24 08:40:44;;;;;;;3.15;1.40;;;15.80;73.00;;;;;;2623396;52;20926;-73
2023/09/24 08:43:15;;;;;;;2.80;1.20;;;15.90;73.10;;;;;;2370298;53;21083;-74
2023/09/24 08:45:42;;;;;;;3.00;1.17;;;16.00;73.20;;;;;;2593868;52;20998;-71
2023/09/24 08:48:09;;;;;;;2.70;1.05;;;16.10;73.30;;;;;;2371174;53;21360;-71
2023/09/24 08:50:37;;;;;;;4.00;1.35;;;16.20;73.40;;;;;;2623132;52;20979;-72
2023/09/24 08:53:10;;;;;;;2.20;1.00;;;16.30;73.50;;;;;;2623311;52;20962;-72
2023/09/24 08:55:36;;;;;;;;;;;16.40;73.40;;;;;;2626792;52;20980;-71
2023/09/24 08:58:03;;;;;;;2.03;0.80;;;16.60;72.70;;;;;;2623484;52;20283;-71
2023/09/24 09:00:30;;;;;;;1.90;0.80;;;16.60;73.20;;;;;;2370277;53;21014;-70
2023/09/24 09:03:05;;;;;;;2.33;1.00;;;16.70;72.90;;;;;;2370776;53;20970;-72
2023/09/24 09:05:36;;;;;;;2.00;0.98;;;16.80;72.60;;;;;;2370459;53;21010;-69
2023/09/24 09:08:03;;;;;;;2.20;1.20;;;16.80;72.50;;;;;;2350839;54;21825;-71
2023/09/24 09:10:32;;;;;;;2.25;0.80;;;16.90;72.70;;;;;;2622594;52;21892;-71
2023/09/24 09:13:11;;;;;;;2.40;0.73;;;17.00;72.60;;;;;;2623105;52;20903;-71
2023/09/24 09:15:39;;;;;;;1.98;0.85;;;17.00;72.20;;;;;;2593714;52;21821;-70
2023/09/24 09:18:05;;;;;;;3.05;0.90;;;17.10;72.30;;;;;;2594985;52;21816;-69
2023/09/24 09:20:42;;;;;;;2.97;0.73;;;17.20;72.20;;;;;;2346480;53;20976;-71
2023/09/24 09:23:12;;;;;;;4.28;0.90;;;17.30;72.40;;;;;;2623724;52;21026;-72
2023/09/24 09:25:52;;;;;;;2.05;0.93;;;17.30;72.10;;;;;;2622080;52;20929;-70
2023/09/24 09:28:23;;;;;;;2.00;0.65;;;17.40;71.70;;;;;;2598372;52;20989;-70
2023/09/24 09:31:06;;;;;;;2.17;0.70;;;17.50;72.20;;;;;;2370179;53;20934;-72
2023/09/24 09:33:40;;;;;;;3.08;0.80;;;17.50;71.70;;;;;;2623296;52;20913;-72
2023/09/24 09:36:30;;;;;;;2.87;1.00;;;17.60;72.20;;;;;;2622872;52;20958;-71
2023/09/24 09:39:06;;;;;;;3.12;1.02;;;17.70;71.30;;;;;;2622958;52;20934;-71
2023/09/24 09:41:33;;;;;;;2.47;1.05;;;17.70;71.90;;;;;;2622564;52;21238;-70
2023/09/24 09:44:05;;;;;;;1.90;0.75;;;17.80;71.90;;;;;;2370537;53;20930;-71
2023/09/24 09:46:33;;;;;;;2.37;0.90;;;17.90;71.70;;;;;;2370816;53;21302;-71
2023/09/24 09:49:05;;;;;;;5.35;1.05;;;17.90;71.90;;;;;;2622760;52;20926;-71
2023/09/24 09:51:46;;;;;;;2.62;1.05;;;18.00;71.90;;;;;;2357314;53;21050;-71
2023/09/24 09:54:13;;;;;;;3.75;1.33;;;18.10;71.80;;;;;;2618301;52;20946;-70
2023/09/24 09:56:40;;;;;;;4.35;1.20;;;18.20;72.10;;;;;;2621427;52;20961;-71
2023/09/24 09:59:08;;;;;;;2.87;1.08;;;18.20;71.90;;;;;;2622791;52;20949;-70
2023/09/24 10:01:35;;;;;;;2.42;1.15;;;18.30;71.90;;;;;;2370847;53;20929;-71
2023/09/24 10:04:03;;;;;;;3.37;1.05;;;18.40;71.90;;;;;;2370369;53;21427;-70
2023/09/24 10:06:37;;;;;;;3.42;1.20;;;18.50;71.80;;;;;;2623031;52;21029;-72
2023/09/24 10:09:55;;;;;;;2.72;1.08;;;18.50;71.50;;;;;;2623749;52;22231;-71
2023/09/24 10:12:42;;;;;;;3.95;1.67;;;18.70;70.80;;;;;;2370109;53;20965;-71
2023/09/24 10:15:26;;;;;;;2.80;1.10;;;18.70;70.70;;;;;;2623794;52;20935;-72
2023/09/24 10:21:28;;;;;;;3.28;1.17;;;18.80;70.90;;;;;;2622861;52;20962;-73
2023/09/24 10:23:54;;;;;;;2.15;0.88;;;19.00;70.70;;;;;;2370462;53;21444;-71
2023/09/24 10:26:54;;;;;;;3.50;1.10;;;19.10;71.80;;;;;;2370802;53;20942;-73
2023/09/24 10:30:07;;;;;;;3.90;0.90;;;19.20;70.40;;;;;;2622028;52;20922;-73
2023/09/24 10:32:42;;;;;;;2.45;0.88;;;19.30;70.20;;;;;;2369999;53;20977;-71
2023/09/24 10:35:09;;;;;;;2.40;1.10;;;19.40;70.90;;;;;;2355335;53;21017;-72
2023/09/24 10:37:55;;;;;;;3.33;0.90;;;19.40;71.20;;;;;;2608298;52;20986;-71
2023/09/24 10:40:24;;;;;;;3.60;0.85;;;19.50;70.90;;;;;;2350574;53;21018;-74
2023/09/24 10:43:10;;;;;;;3.33;1.00;;;19.60;71.10;;;;;;2369717;53;21014;-73
2023/09/24 10:45:39;;;;;;;3.20;1.08;;;19.70;69.70;;;;;;2622013;52;21014;-74
2023/09/24 10:48:05;;;;;;;3.00;0.90;;;19.80;70.80;;;;;;2369373;53;21470;-72
2023/09/24 10:50:32;;;;;;;2.12;0.73;;;19.80;70.70;;;;;;2365473;53;21103;-73
2023/09/24 10:53:02;;;;;;;1.95;0.80;;;19.90;70.60;;;;;;2356366;53;22575;-72
2023/09/24 10:55:38;;;;;;;2.95;1.02;;;20.00;70.10;;;;;;2359196;53;20942;-72
2023/09/24 10:58:12;;;;;;;2.42;0.90;;;20.10;69.70;;;;;;2364053;53;21045;-70
2023/09/24 11:00:38;;;;;;;3.40;1.10;;;20.10;70.30;;;;;;2593079;52;21782;-74
2023/09/24 11:03:06;;;;;;;2.50;1.00;;;20.20;70.40;;;;;;2622339;52;20986;-72
2023/09/24 11:05:48;;;;;;;2.75;0.80;;;20.30;70.20;;;;;;2370631;53;21726;-72
2023/09/24 11:08:16;;;;;;;2.30;0.80;;;20.30;68.90;;;;;;2589796;52;21004;-72
2023/09/24 11:10:46;;;;;;;2.37;0.93;;;20.40;69.80;;;;;;2588317;52;20940;-71
2023/09/24 11:13:13;;;;;;;2.78;1.10;;;20.50;69.60;;;;;;2582805;52;21454;-73
2023/09/24 11:15:39;;;;;;;2.92;1.05;;;20.50;69.80;;;;;;2366010;54;20946;-70
2023/09/24 11:18:07;;;;;;;2.97;0.98;;;20.60;69.90;;;;;;2354052;53;20965;-71
2023/09/24 11:20:34;;;;;;;2.22;0.90;;;20.70;69.90;;;;;;2335496;53;20989;-71
2023/09/24 11:23:11;;;;;;;2.97;0.80;;;20.70;69.60;;;;;;2328194;54;20969;-72
2023/09/24 11:25:38;;;;;;;3.22;1.10;;;20.80;68.60;;;;;;2589279;52;20923;-71
2023/09/24 11:28:05;;;;;;;2.90;1.27;;;20.80;69.30;;;;;;2342440;53;21435;-70
2023/09/24 11:30:50;;;;;;;2.10;0.85;;;20.90;69.20;;;;;;2589738;52;20938;-69
2023/09/24 11:33:22;;;;;;;2.55;1.00;;;21.00;67.70;;;;;;2589167;52;20957;-70
2023/09/24 11:35:53;;;;;;;2.45;0.90;;;21.00;68.70;;;;;;2346039;53;20966;-70
2023/09/24 11:38:32;;;;;;;2.03;0.90;;;21.00;68.40;;;;;;2343089;53;20923;-71
2023/09/24 11:41:14;;;;;;;2.62;0.80;;;21.10;67.70;;;;;;2587465;52;20978;-70
2023/09/24 11:43:41;;;;;;;4.82;1.00;;;21.10;67.70;;;;;;2359922;53;20983;-70
2023/09/24 11:46:28;;;;;;;1.77;0.80;;;21.20;68.60;;;;;;2343287;53;21532;-71
2023/09/24 11:48:56;;;;;;;3.05;0.90;;;21.20;67.10;;;;;;2341537;53;20989;-70
2023/09/24 11:51:23;;;;;;;2.28;0.82;;;21.30;68.20;;;;;;2588248;52;20916;-69
2023/09/24 11:53:49;;;;;;;2.78;1.00;;;21.30;67.80;;;;;;2588530;52;20917;-68
2023/09/24 11:56:18;;;;;;;2.37;0.90;;;21.30;67.70;;;;;;2343221;53;20941;-69
2023/09/24 11:58:44;;;;;;;4.32;1.20;;;21.40;67.60;;;;;;2589155;52;20947;-69
2023/09/24 12:01:12;;;;;;;3.00;1.02;;;21.40;67.50;;;;;;2343049;53;20890;-70
2023/09/24 12:03:39;;;;;;;2.60;1.00;;;21.40;67.50;;;;;;2589487;52;21876;-71
2023/09/24 12:06:06;;;;;;;3.60;1.20;;;21.50;67.50;;;;;;2348341;53;20962;-69
2023/09/24 12:08:35;;;;;;;2.42;1.00;;;21.50;67.50;;;;;;2604092;52;21296;-71
2023/09/24 12:11:01;;;;;;;2.10;0.90;;;21.60;67.30;;;;;;2342444;53;20960;-71
2023/09/24 12:13:27;;;;;;;2.83;0.90;;;21.60;67.30;;;;;;2588894;52;20988;-68
2023/09/24 12:15:54;;;;;;;2.67;0.93;;;21.60;67.40;;;;;;2342843;53;20993;-67
2023/09/24 12:18:21;;;;;;;3.35;1.02;;;21.70;67.50;;;;;;2350847;53;20983;-68
2023/09/24 12:20:48;;;;;;;3.47;1.00;;;21.70;67.50;;;;;;2306752;54;21000;-70
2023/09/24 12:23:17;;;;;;;1.98;0.75;;;21.80;67.30;;;;;;2600344;52;21787;-69
2023/09/24 12:25:44;;;;;;;2.15;0.85;;;21.80;66.90;;;;;;2593611;52;20905;-69
2023/09/24 12:28:11;;;;;;;2.65;0.80;;;21.90;67.00;;;;;;2343047;53;21020;-69
2023/09/24 12:30:38;;;;;;;2.33;0.90;;;21.90;67.00;;;;;;2343123;53;20945;-68
2023/09/24 12:33:07;;;;;;;1.95;0.75;;;22.00;66.90;;;;;;2591951;52;20991;-69
2023/09/24 12:35:37;;;;;;;2.33;0.95;;;22.00;66.20;;;;;;2589036;52;20936;-68
2023/09/24 12:38:04;;;;;;;3.42;0.90;;;22.20;66.50;;;;;;2360835;53;21484;-69
2023/09/24 12:40:30;;;;;;;2.90;0.90;;;22.20;66.30;;;;;;2369831;53;20938;-69
2023/09/24 12:42:57;;;;;;;2.22;0.95;;;22.20;66.30;;;;;;2368491;53;20930;-70
2023/09/24 12:45:26;;;;;;;2.95;0.70;;;22.30;66.30;;;;;;2370400;53;20955;-70
2023/09/24 12:47:52;;;;;;;2.45;0.93;;;22.40;66.10;;;;;;2370006;53;21455;-70
2023/09/24 12:50:18;;;;;;;2.78;0.85;;;22.40;66.40;;;;;;2370475;53;21425;-71
2023/09/24 12:52:45;;;;;;;2.40;0.90;;;22.50;66.40;;;;;;2369389;53;20989;-70
2023/09/24 12:55:20;;;;;;;2.28;0.65;;;22.50;66.20;;;;;;2372321;53;21803;-69
2023/09/24 12:57:48;;;;;;;2.10;0.70;;;22.60;66.00;;;;;;2362559;53;20915;-70
2023/09/24 13:00:16;;;;;;;2.72;1.10;;;22.60;65.80;;;;;;2622092;52;20942;-69
2023/09/24 13:02:45;;;;;;;1.85;0.60;;;22.70;65.70;;;;;;2370459;53;20938;-68